createdAt,value
2023-01-19T00:00:06.810Z,-1.19
2023-01-19T00:02:33.966Z,-1.28
2023-01-19T00:05:01.925Z,-1.21
2023-01-19T00:07:30.172Z,-1.26
2023-01-19T00:09:57.426Z,-1.20
2023-01-19T00:12:24.109Z,-1.19
2023-01-19T00:14:50.843Z,-1.25
2023-01-19T00:17:18.706Z,-1.21
2023-01-19T00:19:45.428Z,-1.16
2023-01-19T00:22:12.120Z,-1.18
2023-01-19T00:24:38.935Z,-1.17
2023-01-19T00:27:05.598Z,-1.18
2023-01-19T00:29:34.161Z,-1.24
2023-01-19T00:32:01.413Z,-1.26
2023-01-19T00:34:37.025Z,-1.27
2023-01-19T00:37:04.452Z,-1.27
2023-01-19T00:39:31.205Z,-1.32
2023-01-19T00:42:16.604Z,-1.33
2023-01-19T00:44:43.273Z,-1.32
2023-01-19T00:47:10.030Z,-1.33
2023-01-19T00:49:36.801Z,-1.20
2023-01-19T00:52:04.108Z,-1.23
2023-01-19T00:54:31.044Z,-1.17
2023-01-19T00:56:57.867Z,-1.18
2023-01-19T00:59:25.836Z,-1.15
2023-01-19T01:01:53.011Z,-1.16
2023-01-19T01:04:19.966Z,-1.14
2023-01-19T01:06:46.783Z,-1.15
2023-01-19T01:09:13.911Z,-1.11
2023-01-19T01:11:42.313Z,-1.13
2023-01-19T01:14:11.505Z,-1.12
2023-01-19T01:16:38.539Z,-1.17
2023-01-19T01:19:05.388Z,-1.16
2023-01-19T01:21:34.677Z,-1.18
2023-01-19T01:24:02.170Z,-1.13
2023-01-19T01:26:29.208Z,-1.13
2023-01-19T01:28:55.986Z,-1.12
2023-01-19T01:31:22.822Z,-1.06
2023-01-19T01:33:49.575Z,-1.09
2023-01-19T01:36:16.488Z,-1.09
2023-01-19T01:38:43.434Z,-1.05
2023-01-19T01:41:10.201Z,-1.06
2023-01-19T01:43:58.403Z,-1.03
2023-01-19T01:46:26.885Z,-1.06
2023-01-19T01:49:07.524Z,-1.00
2023-01-19T01:51:37.228Z,-1.00
2023-01-19T01:54:17.059Z,-1.02
2023-01-19T01:56:48.986Z,-1.00
2023-01-19T01:59:34.926Z,-1.00
2023-01-19T02:02:26.325Z,-1.02
2023-01-19T02:05:04.025Z,-1.00
2023-01-19T02:08:02.617Z,-1.01
2023-01-19T02:10:47.923Z,-0.98
2023-01-19T02:13:21.088Z,-1.00
2023-01-19T02:15:53.307Z,-0.98
2023-01-19T02:18:22.641Z,-1.00
2023-01-19T02:21:18.956Z,-0.90
2023-01-19T02:23:50.589Z,-0.89
2023-01-19T02:26:21.115Z,-0.83
2023-01-19T02:28:59.120Z,-0.79
2023-01-19T02:31:27.138Z,-0.79
2023-01-19T02:33:55.769Z,-0.82
2023-01-19T02:36:27.189Z,-0.73
2023-01-19T02:38:56.758Z,-0.69
2023-01-19T02:41:28.693Z,-0.74
2023-01-19T02:43:58.074Z,-0.81
2023-01-19T02:46:25.855Z,-0.84
2023-01-19T02:48:52.682Z,-0.86
2023-01-19T02:51:24.980Z,-0.87
2023-01-19T02:53:51.649Z,-0.89
2023-01-19T02:56:55.008Z,-0.84
2023-01-19T02:59:33.660Z,-0.88
2023-01-19T03:02:25.265Z,-0.88
2023-01-19T03:05:10.910Z,-0.85
2023-01-19T03:07:53.110Z,-0.83
2023-01-19T03:10:31.464Z,-0.79
2023-01-19T03:13:41.835Z,-0.76
2023-01-19T03:16:18.047Z,-0.69
2023-01-19T03:18:49.895Z,-0.65
2023-01-19T03:21:19.584Z,-0.62
2023-01-19T03:23:47.831Z,-0.61
2023-01-19T03:26:20.442Z,-0.64
2023-01-19T03:28:48.902Z,-0.58
2023-01-19T03:31:22.297Z,-0.56
2023-01-19T03:33:53.395Z,-0.55
2023-01-19T03:36:27.518Z,-0.53
2023-01-19T03:38:55.767Z,-0.50
2023-01-19T03:41:25.493Z,-0.52
2023-01-19T03:43:53.633Z,-0.49
2023-01-19T03:46:22.325Z,-0.44
2023-01-19T03:48:49.760Z,-0.43
2023-01-19T03:51:17.759Z,-0.39
2023-01-19T03:53:44.627Z,-0.38
2023-01-19T03:56:31.711Z,-0.35
2023-01-19T03:58:58.804Z,-0.36
2023-01-19T04:01:25.956Z,-0.29
2023-01-19T04:03:53.067Z,-0.29
2023-01-19T04:06:21.207Z,-0.24
2023-01-19T04:08:49.338Z,-0.21
2023-01-19T04:11:16.342Z,-0.16
2023-01-19T04:13:43.777Z,-0.17
2023-01-19T04:16:11.403Z,-0.13
2023-01-19T04:18:38.200Z,-0.11
2023-01-19T04:21:07.454Z,-0.09
2023-01-19T04:23:34.848Z,-0.07
2023-01-19T04:26:03.981Z,-0.06
2023-01-19T04:28:31.222Z,-0.03
2023-01-19T04:30:58.080Z,-0.02
2023-01-19T04:33:25.669Z,0.12
2023-01-19T04:35:56.118Z,0.03
2023-01-19T04:38:24.483Z,0.04
2023-01-19T04:40:52.794Z,0.04
2023-01-19T04:43:20.659Z,0.07
2023-01-19T04:45:48.579Z,0.07
2023-01-19T04:48:16.234Z,0.10
2023-01-19T04:50:43.019Z,0.13
2023-01-19T04:53:09.876Z,0.17
2023-01-19T04:55:38.756Z,0.21
2023-01-19T04:58:05.780Z,0.19
2023-01-19T05:00:32.507Z,0.23
2023-01-19T05:02:59.963Z,0.23
2023-01-19T05:05:27.417Z,0.29
2023-01-19T05:07:54.965Z,0.27
2023-01-19T05:10:21.904Z,0.27
2023-01-19T05:12:48.838Z,0.28
2023-01-19T05:15:15.610Z,0.31
2023-01-19T05:17:42.402Z,0.34
2023-01-19T05:20:11.255Z,0.34
2023-01-19T05:22:39.204Z,0.38
2023-01-19T05:25:11.110Z,0.40
2023-01-19T05:27:38.688Z,0.38
2023-01-19T05:30:06.507Z,0.38
2023-01-19T05:32:33.361Z,0.39
2023-01-19T05:35:00.138Z,0.43
2023-01-19T05:37:26.997Z,0.40
2023-01-19T05:39:54.063Z,0.40
2023-01-19T05:42:20.979Z,0.40
2023-01-19T05:44:47.866Z,0.43
2023-01-19T05:47:14.930Z,0.45
2023-01-19T05:49:41.649Z,0.47
2023-01-19T05:52:08.480Z,0.44
2023-01-19T05:54:35.189Z,0.45
2023-01-19T05:57:03.183Z,0.46
2023-01-19T05:59:29.827Z,0.45
2023-01-19T06:01:57.135Z,0.45
2023-01-19T06:04:24.139Z,0.46
2023-01-19T06:06:51.434Z,0.45
2023-01-19T06:09:18.428Z,0.46
2023-01-19T06:11:46.140Z,0.44
2023-01-19T06:14:13.372Z,0.45
2023-01-19T06:16:40.602Z,0.49
2023-01-19T06:19:07.556Z,0.47
2023-01-19T06:21:34.586Z,0.44
2023-01-19T06:24:01.332Z,0.48
2023-01-19T06:26:28.031Z,0.47
2023-01-19T06:28:55.555Z,0.49
2023-01-19T06:31:22.615Z,0.48
2023-01-19T06:33:50.168Z,0.47
2023-01-19T06:36:16.892Z,0.47
2023-01-19T06:38:44.123Z,0.51
2023-01-19T06:41:10.939Z,0.48
2023-01-19T06:43:37.727Z,0.52
2023-01-19T06:46:04.833Z,0.52
2023-01-19T06:48:31.839Z,0.49
2023-01-19T06:50:59.702Z,0.52
2023-01-19T06:53:28.150Z,0.49
2023-01-19T06:56:01.948Z,0.49
2023-01-19T06:58:30.926Z,0.52
2023-01-19T07:01:04.953Z,0.48
2023-01-19T07:03:32.274Z,0.50
2023-01-19T07:06:02.344Z,0.47
2023-01-19T07:08:29.680Z,0.52
2023-01-19T07:11:25.976Z,0.49
2023-01-19T07:13:57.836Z,0.52
2023-01-19T07:16:24.999Z,0.59
2023-01-19T07:18:51.812Z,0.61
2023-01-19T07:21:19.227Z,0.60
2023-01-19T07:23:49.132Z,0.61
2023-01-19T07:26:18.522Z,0.58
2023-01-19T07:28:46.817Z,0.57
2023-01-19T07:31:15.566Z,0.60
2023-01-19T07:33:42.473Z,0.64
2023-01-19T07:36:09.876Z,0.65
2023-01-19T07:38:36.567Z,0.63
2023-01-19T07:41:05.284Z,0.60
2023-01-19T07:43:32.421Z,0.66
2023-01-19T07:46:00.824Z,0.60
2023-01-19T07:48:28.292Z,0.64
2023-01-19T07:51:00.866Z,0.65
2023-01-19T07:53:27.732Z,0.69
2023-01-19T07:55:56.480Z,0.66
2023-01-19T07:58:24.201Z,0.65
2023-01-19T08:00:51.003Z,0.66
2023-01-19T08:03:18.592Z,0.69
2023-01-19T08:05:45.568Z,0.69
2023-01-19T08:08:12.714Z,0.73
2023-01-19T08:10:39.509Z,0.77
2023-01-19T08:13:06.150Z,0.73
2023-01-19T08:15:32.865Z,0.76
2023-01-19T08:18:05.664Z,0.79
2023-01-19T08:20:32.776Z,0.83
2023-01-19T08:23:00.430Z,0.83
2023-01-19T08:25:34.365Z,0.89
2023-01-19T08:28:02.236Z,0.95
2023-01-19T08:30:30.153Z,0.90
2023-01-19T08:33:04.081Z,1.08
2023-01-19T08:35:32.411Z,1.12
2023-01-19T08:38:01.684Z,1.13
2023-01-19T08:40:30.123Z,1.16
2023-01-19T08:43:03.533Z,1.18
2023-01-19T08:45:33.691Z,1.25
2023-01-19T08:48:00.996Z,1.28
2023-01-19T08:50:33.104Z,1.33
2023-01-19T08:53:01.942Z,1.29
2023-01-19T08:55:30.060Z,1.32
2023-01-19T08:58:00.014Z,1.41
2023-01-19T09:00:27.682Z,1.41
2023-01-19T09:02:55.039Z,1.42
2023-01-19T09:05:22.292Z,1.47
2023-01-19T09:07:49.491Z,1.57
2023-01-19T09:10:16.691Z,1.60
2023-01-19T09:12:45.114Z,1.52
2023-01-19T09:15:13.951Z,1.65
2023-01-19T09:17:43.595Z,1.61
2023-01-19T09:20:10.895Z,1.65
2023-01-19T09:22:39.663Z,1.64
2023-01-19T09:25:07.777Z,1.76
2023-01-19T09:27:35.958Z,1.90
2023-01-19T09:30:04.351Z,1.96
2023-01-19T09:32:31.097Z,2.01
2023-01-19T09:34:57.983Z,2.02
2023-01-19T09:37:24.848Z,2.12
2023-01-19T09:39:51.763Z,2.19
2023-01-19T09:42:27.164Z,2.19
2023-01-19T09:44:54.631Z,2.35
2023-01-19T09:47:28.517Z,2.57
2023-01-19T09:49:59.523Z,2.29
2023-01-19T09:52:26.343Z,2.54
2023-01-19T09:54:57.778Z,2.54
2023-01-19T09:57:27.205Z,2.75
2023-01-19T09:59:59.499Z,2.57
2023-01-19T10:02:49.893Z,2.83
2023-01-19T10:05:41.406Z,3.35
2023-01-19T10:08:11.176Z,3.52
2023-01-19T10:10:42.403Z,3.59
2023-01-19T10:13:30.698Z,3.53
2023-01-19T10:16:15.708Z,3.25
2023-01-19T10:18:48.339Z,3.34
2023-01-19T10:21:19.380Z,3.48
2023-01-19T10:23:52.410Z,3.86
2023-01-19T10:26:36.317Z,4.05
2023-01-19T10:29:12.606Z,3.73
2023-01-19T10:31:42.403Z,3.63
2023-01-19T10:34:20.435Z,3.50
2023-01-19T10:36:52.832Z,3.26
2023-01-19T10:39:20.058Z,3.17
2023-01-19T10:41:52.680Z,3.09
2023-01-19T10:44:34.648Z,3.11
2023-01-19T10:47:02.319Z,2.99
2023-01-19T10:49:31.548Z,3.15
2023-01-19T10:52:00.147Z,3.32
2023-01-19T10:54:29.693Z,3.32
2023-01-19T10:57:03.320Z,3.52
2023-01-19T10:59:45.450Z,3.79
2023-01-19T11:02:22.846Z,3.57
2023-01-19T11:04:52.983Z,3.61
2023-01-19T11:07:25.928Z,3.62
2023-01-19T11:10:21.165Z,3.78
2023-01-19T11:13:07.465Z,3.44
2023-01-19T11:16:00.238Z,3.47
2023-01-19T11:18:36.188Z,3.41
2023-01-19T11:21:26.017Z,3.56
2023-01-19T11:23:55.347Z,3.38
2023-01-19T11:26:41.460Z,3.74
2023-01-19T11:29:21.673Z,3.35
2023-01-19T11:31:49.676Z,3.47
2023-01-19T11:34:38.699Z,3.27
2023-01-19T11:37:27.224Z,3.11
2023-01-19T11:39:57.908Z,3.18
2023-01-19T11:42:28.187Z,3.15
2023-01-19T11:44:58.086Z,3.11
2023-01-19T11:47:35.911Z,3.32
2023-01-19T11:50:33.294Z,3.35
2023-01-19T11:53:24.366Z,3.30
2023-01-19T11:56:07.089Z,3.47
2023-01-19T11:58:39.264Z,3.56
2023-01-19T12:01:36.861Z,4.21
2023-01-19T12:04:06.880Z,4.76
2023-01-19T12:06:49.397Z,5.09
2023-01-19T12:09:34.147Z,4.97
2023-01-19T12:12:08.297Z,5.03
2023-01-19T12:14:44.396Z,4.76
2023-01-19T12:17:20.314Z,4.76
2023-01-19T12:19:54.832Z,4.46
2023-01-19T12:22:23.802Z,4.50
2023-01-19T12:25:02.943Z,4.59
2023-01-19T12:27:43.011Z,4.80
2023-01-19T12:30:23.499Z,4.69
2023-01-19T12:32:53.869Z,4.77
2023-01-19T12:36:14.869Z,4.67
2023-01-19T12:38:54.919Z,4.37
2023-01-19T12:41:27.540Z,3.88
2023-01-19T12:44:13.992Z,3.98
2023-01-19T12:46:51.798Z,3.85
2023-01-19T12:49:40.069Z,3.83
2023-01-19T12:52:34.355Z,3.76
2023-01-19T12:55:13.169Z,3.61
2023-01-19T12:57:49.083Z,3.58
2023-01-19T13:00:21.939Z,3.57
2023-01-19T13:02:54.533Z,3.46
2023-01-19T13:05:33.294Z,3.61
2023-01-19T13:08:03.397Z,3.40
2023-01-19T13:11:10.434Z,3.36
2023-01-19T13:13:42.128Z,3.48
2023-01-19T13:16:27.570Z,3.31
2023-01-19T13:19:06.904Z,3.27
2023-01-19T13:21:44.691Z,3.39
2023-01-19T13:24:17.426Z,3.30
2023-01-19T13:26:50.503Z,3.19
2023-01-19T13:29:33.779Z,3.17
2023-01-19T13:32:04.046Z,3.20
2023-01-19T13:34:41.156Z,3.19
2023-01-19T13:37:20.773Z,3.09
2023-01-19T13:39:50.199Z,3.17
2023-01-19T13:42:35.119Z,2.97
2023-01-19T13:45:31.263Z,3.01
2023-01-19T13:48:01.069Z,2.96
2023-01-19T13:50:30.234Z,3.01
2023-01-19T13:52:58.978Z,2.95
2023-01-19T13:55:28.949Z,2.99
2023-01-19T13:57:57.067Z,2.97
2023-01-19T14:00:26.547Z,2.93
2023-01-19T14:02:53.782Z,2.86
2023-01-19T14:05:32.545Z,2.86
2023-01-19T14:08:12.436Z,2.78
2023-01-19T14:11:02.434Z,2.65
2023-01-19T14:13:40.136Z,2.66
2023-01-19T14:16:18.175Z,2.70
2023-01-19T14:18:44.924Z,2.50
2023-01-19T14:21:13.862Z,2.51
2023-01-19T14:23:48.728Z,2.56
2023-01-19T14:26:37.450Z,2.51
2023-01-19T14:29:10.358Z,2.47
2023-01-19T14:31:49.258Z,2.50
2023-01-19T14:34:51.529Z,2.50
2023-01-19T14:37:28.108Z,2.51
2023-01-19T14:40:04.893Z,2.53
2023-01-19T14:42:44.648Z,2.54
2023-01-19T14:45:32.681Z,2.43
2023-01-19T14:48:03.939Z,2.56
2023-01-19T14:50:36.847Z,2.45
2023-01-19T14:53:24.929Z,2.45
2023-01-19T14:55:58.843Z,2.47
2023-01-19T14:58:28.955Z,2.52
2023-01-19T15:00:56.292Z,2.57
2023-01-19T15:03:34.902Z,2.56
2023-01-19T15:06:14.861Z,2.53
2023-01-19T15:08:41.687Z,2.54
2023-01-19T15:11:29.874Z,2.49
2023-01-19T15:13:56.656Z,2.52
2023-01-19T15:16:24.265Z,2.56
2023-01-19T15:18:51.117Z,2.59
2023-01-19T15:21:26.908Z,2.58
2023-01-19T15:23:54.556Z,2.51
2023-01-19T15:26:24.266Z,2.52
2023-01-19T15:28:51.791Z,2.52
2023-01-19T15:31:21.354Z,2.60
2023-01-19T15:33:48.416Z,2.56
2023-01-19T15:36:18.261Z,2.56
2023-01-19T15:38:45.890Z,2.54
2023-01-19T15:41:23.922Z,2.54
2023-01-19T15:43:51.155Z,2.56
2023-01-19T15:46:20.817Z,2.59
2023-01-19T15:48:48.522Z,2.55
2023-01-19T15:51:18.156Z,2.52
2023-01-19T15:53:45.525Z,2.56
2023-01-19T15:56:21.877Z,2.55
2023-01-19T15:58:48.713Z,2.50
2023-01-19T16:01:18.015Z,2.62
2023-01-19T16:03:45.095Z,2.58
2023-01-19T16:06:12.810Z,2.46
2023-01-19T16:08:40.085Z,2.50
2023-01-19T16:11:08.436Z,2.43
2023-01-19T16:13:35.332Z,2.41
2023-01-19T16:16:07.493Z,2.44
2023-01-19T16:18:34.851Z,2.42
2023-01-19T16:21:01.618Z,2.40
2023-01-19T16:23:28.356Z,2.38
2023-01-19T16:26:00.167Z,2.31
2023-01-19T16:28:27.419Z,2.34
2023-01-19T16:30:54.183Z,2.38
2023-01-19T16:33:20.906Z,2.38
2023-01-19T16:35:47.684Z,2.27
2023-01-19T16:38:15.065Z,2.25
2023-01-19T16:40:44.652Z,2.32
2023-01-19T16:43:12.384Z,2.26
2023-01-19T16:45:58.103Z,2.32
2023-01-19T16:48:25.904Z,2.30
2023-01-19T16:51:04.218Z,2.40
2023-01-19T16:53:31.815Z,2.31
2023-01-19T16:55:58.578Z,2.31
2023-01-19T16:58:25.364Z,2.42
2023-01-19T17:00:52.282Z,2.46
2023-01-19T17:03:19.108Z,2.39
2023-01-19T17:05:51.737Z,2.40
2023-01-19T17:08:19.855Z,2.35
2023-01-19T17:10:47.573Z,2.32
2023-01-19T17:13:14.299Z,2.35
2023-01-19T17:15:41.176Z,2.42
2023-01-19T17:18:10.299Z,2.37
2023-01-19T17:20:37.268Z,2.42
2023-01-19T17:23:04.171Z,2.34
2023-01-19T17:25:31.054Z,2.42
2023-01-19T17:28:01.356Z,2.38
2023-01-19T17:30:28.097Z,2.31
2023-01-19T17:32:54.875Z,2.26
2023-01-19T17:35:21.609Z,2.27
2023-01-19T17:37:48.545Z,2.37
2023-01-19T17:40:15.683Z,2.26
2023-01-19T17:42:42.417Z,2.26
2023-01-19T17:45:10.873Z,2.30
2023-01-19T17:47:38.453Z,2.30
2023-01-19T17:50:05.990Z,2.34
2023-01-19T17:52:32.852Z,2.40
2023-01-19T17:54:59.725Z,2.41
2023-01-19T17:57:26.558Z,2.38
2023-01-19T17:59:53.324Z,2.35
2023-01-19T18:02:24.510Z,2.31
2023-01-19T18:04:52.648Z,2.37
2023-01-19T18:07:19.380Z,2.27
2023-01-19T18:09:46.159Z,2.37
2023-01-19T18:12:12.904Z,2.30
2023-01-19T18:14:40.337Z,2.28
2023-01-19T18:17:07.333Z,2.25
2023-01-19T18:19:34.199Z,2.15
2023-01-19T18:22:01.664Z,2.11
2023-01-19T18:24:28.371Z,2.11
2023-01-19T18:26:55.831Z,2.09
2023-01-19T18:29:22.693Z,2.07
2023-01-19T18:31:49.433Z,2.02
2023-01-19T18:34:16.199Z,1.99
2023-01-19T18:36:43.340Z,2.01
2023-01-19T18:39:10.473Z,2.05
2023-01-19T18:41:42.358Z,2.06
2023-01-19T18:44:10.038Z,1.97
2023-01-19T18:46:38.009Z,2.03
2023-01-19T18:49:05.426Z,1.99
2023-01-19T18:51:32.584Z,2.00
2023-01-19T18:53:59.710Z,2.00
2023-01-19T18:56:26.785Z,1.99
2023-01-19T18:58:53.630Z,2.01
2023-01-19T19:01:25.185Z,1.99
2023-01-19T19:03:54.079Z,2.00
2023-01-19T19:06:21.448Z,2.08
2023-01-19T19:08:52.483Z,2.02
2023-01-19T19:11:20.687Z,1.98
2023-01-19T19:13:52.228Z,1.95
2023-01-19T19:16:19.188Z,2.01
2023-01-19T19:18:49.714Z,1.96
2023-01-19T19:21:18.253Z,1.92
2023-01-19T19:23:50.319Z,1.96
2023-01-19T19:26:17.102Z,1.91
2023-01-19T19:28:45.707Z,1.91
2023-01-19T19:31:15.546Z,1.87
2023-01-19T19:33:42.726Z,1.81
2023-01-19T19:36:10.362Z,1.72
2023-01-19T19:38:37.311Z,1.67
2023-01-19T19:41:09.945Z,1.64
2023-01-19T19:43:37.486Z,1.57
2023-01-19T19:46:08.989Z,1.60
2023-01-19T19:48:39.117Z,1.52
2023-01-19T19:51:19.486Z,1.55
2023-01-19T19:53:47.880Z,1.49
2023-01-19T19:56:16.090Z,1.50
2023-01-19T19:58:43.992Z,1.50
2023-01-19T20:01:13.142Z,1.47
2023-01-19T20:03:40.306Z,1.47
2023-01-19T20:06:09.430Z,1.45
2023-01-19T20:08:36.723Z,1.43
2023-01-19T20:11:06.292Z,1.41
2023-01-19T20:13:35.048Z,1.41
2023-01-19T20:16:06.662Z,1.39
2023-01-19T20:18:34.103Z,1.37
2023-01-19T20:21:01.045Z,1.31
2023-01-19T20:23:27.878Z,1.32
2023-01-19T20:25:54.645Z,1.32
2023-01-19T20:28:21.476Z,1.33
2023-01-19T20:30:48.208Z,1.29
2023-01-19T20:33:15.259Z,1.25
2023-01-19T20:35:41.984Z,1.27
2023-01-19T20:38:08.754Z,1.24
2023-01-19T20:40:35.477Z,1.24
2023-01-19T20:43:02.253Z,1.19
2023-01-19T20:45:29.048Z,1.11
2023-01-19T20:47:55.961Z,1.09
2023-01-19T20:50:23.034Z,0.98
2023-01-19T20:52:50.103Z,0.92
2023-01-19T20:55:16.925Z,0.93
2023-01-19T20:57:43.590Z,0.86
2023-01-19T21:00:12.810Z,0.89
2023-01-19T21:02:39.658Z,0.84
2023-01-19T21:05:06.992Z,0.83
2023-01-19T21:07:33.919Z,0.74
2023-01-19T21:10:00.670Z,0.71
2023-01-19T21:12:27.382Z,0.77
2023-01-19T21:14:54.015Z,0.73
2023-01-19T21:17:20.706Z,0.76
2023-01-19T21:19:47.366Z,0.72
2023-01-19T21:22:14.431Z,0.68
2023-01-19T21:24:43.199Z,0.68
2023-01-19T21:27:11.002Z,0.54
2023-01-19T21:29:37.673Z,0.51
2023-01-19T21:32:04.588Z,0.44
2023-01-19T21:34:31.310Z,0.48
2023-01-19T21:36:58.081Z,0.57
2023-01-19T21:39:24.891Z,0.53
2023-01-19T21:41:51.556Z,0.47
2023-01-19T21:44:18.323Z,0.37
2023-01-19T21:46:45.243Z,0.36
2023-01-19T21:49:18.157Z,0.32
2023-01-19T21:51:47.893Z,0.35
2023-01-19T21:54:14.754Z,0.39
2023-01-19T21:56:43.276Z,0.33
2023-01-19T21:59:13.061Z,0.38
2023-01-19T22:01:39.981Z,0.34
2023-01-19T22:04:07.012Z,0.32
2023-01-19T22:06:34.002Z,0.29
2023-01-19T22:09:00.936Z,0.33
2023-01-19T22:11:28.621Z,0.30
2023-01-19T22:13:55.770Z,0.25
2023-01-19T22:16:23.809Z,0.29
2023-01-19T22:18:59.388Z,0.22
2023-01-19T22:21:29.661Z,0.21
2023-01-19T22:23:59.133Z,0.17
2023-01-19T22:26:27.232Z,0.29
2023-01-19T22:28:59.610Z,0.25
2023-01-19T22:31:27.936Z,0.08
2023-01-19T22:33:55.197Z,0.08
2023-01-19T22:36:22.964Z,0.05
2023-01-19T22:38:54.011Z,0.07
2023-01-19T22:41:24.923Z,0.07
2023-01-19T22:43:54.813Z,-0.03
2023-01-19T22:46:24.015Z,-0.03
2023-01-19T22:48:51.163Z,-0.00
2023-01-19T22:51:19.063Z,0.01
2023-01-19T22:53:45.893Z,0.05
2023-01-19T22:56:33.363Z,0.08
2023-01-19T22:59:00.832Z,0.09
2023-01-19T23:01:30.480Z,0.10
2023-01-19T23:03:57.301Z,0.08
2023-01-19T23:06:26.492Z,0.09
2023-01-19T23:08:55.703Z,0.15
2023-01-19T23:11:34.875Z,0.15
2023-01-19T23:14:03.793Z,0.14
2023-01-19T23:16:30.545Z,0.19
2023-01-19T23:18:58.225Z,0.22
2023-01-19T23:21:27.012Z,0.18
2023-01-19T23:23:55.244Z,0.19
2023-01-19T23:26:23.031Z,0.10
2023-01-19T23:29:00.305Z,0.14
2023-01-19T23:31:36.461Z,0.20
2023-01-19T23:34:08.871Z,0.23
2023-01-19T23:36:37.507Z,0.27
2023-01-19T23:39:18.864Z,0.29
2023-01-19T23:41:46.150Z,0.24
2023-01-19T23:44:13.524Z,0.19
2023-01-19T23:46:40.286Z,0.21
2023-01-19T23:49:07.029Z,0.21
2023-01-19T23:51:34.115Z,0.20
2023-01-19T23:54:01.127Z,0.20
2023-01-19T23:56:33.562Z,0.15
2023-01-19T23:59:03.103Z,0.17
